createdAt,value
2023-05-04T00:00:55.052Z,23.28
2023-05-04T00:03:00.199Z,23.27
2023-05-04T00:05:05.496Z,23.27
2023-05-04T00:07:10.568Z,23.27
2023-05-04T00:09:15.629Z,23.27
2023-05-04T00:11:20.657Z,23.26
2023-05-04T00:13:25.778Z,23.26
2023-05-04T00:15:30.882Z,23.25
2023-05-04T00:17:35.926Z,23.24
2023-05-04T00:19:41.179Z,23.24
2023-05-04T00:21:46.387Z,23.23
2023-05-04T00:23:51.488Z,23.21
2023-05-04T00:25:56.694Z,23.2
2023-05-04T00:28:01.742Z,23.2
2023-05-04T00:30:06.963Z,23.2
2023-05-04T00:32:12.046Z,23.2
2023-05-04T00:34:17.101Z,23.18
2023-05-04T00:36:22.149Z,23.18
2023-05-04T00:38:27.170Z,23.18
2023-05-04T00:40:32.249Z,23.15
2023-05-04T00:42:37.316Z,23.14
2023-05-04T00:44:42.398Z,23.12
2023-05-04T00:46:47.550Z,23.11
2023-05-04T00:48:52.869Z,23.06
2023-05-04T00:50:58.103Z,23.09
2023-05-04T00:53:03.146Z,23.07
2023-05-04T00:55:08.222Z,23.06
2023-05-04T00:57:13.307Z,23.04
2023-05-04T00:59:18.472Z,23.03
2023-05-04T01:01:23.623Z,23.02
2023-05-04T01:03:29.035Z,23.03
2023-05-04T01:05:34.298Z,22.99
2023-05-04T01:07:39.410Z,23.01
2023-05-04T01:09:44.596Z,23
2023-05-04T01:11:49.674Z,22.98
2023-05-04T01:13:54.759Z,22.99
2023-05-04T01:15:59.792Z,22.97
2023-05-04T01:18:04.890Z,22.95
2023-05-04T01:20:10.083Z,22.95
2023-05-04T01:22:15.116Z,22.92
2023-05-04T01:24:20.193Z,22.9
2023-05-04T01:26:25.233Z,22.9
2023-05-04T01:28:30.353Z,22.89
2023-05-04T01:30:35.427Z,22.87
2023-05-04T01:32:40.714Z,22.89
2023-05-04T01:34:46.016Z,22.88
2023-05-04T01:36:51.078Z,22.89
2023-05-04T01:38:56.238Z,22.88
2023-05-04T01:41:01.491Z,22.86
2023-05-04T01:43:06.550Z,22.87
2023-05-04T01:45:11.704Z,22.89
2023-05-04T01:47:16.740Z,22.86
2023-05-04T01:49:21.798Z,22.85
2023-05-04T01:51:26.982Z,22.85
2023-05-04T01:53:32.027Z,22.84
2023-05-04T01:55:37.127Z,22.83
2023-05-04T01:57:42.195Z,22.83
2023-05-04T01:59:47.257Z,22.8
2023-05-04T02:01:52.340Z,22.79
2023-05-04T02:03:57.643Z,22.77
2023-05-04T02:06:03.244Z,22.77
2023-05-04T02:08:08.301Z,22.76
2023-05-04T02:10:13.350Z,22.71
2023-05-04T02:12:18.443Z,22.71
2023-05-04T02:14:23.559Z,22.68
2023-05-04T02:16:28.817Z,22.68
2023-05-04T02:18:34.074Z,22.63
2023-05-04T02:20:39.196Z,22.63
2023-05-04T02:22:44.217Z,22.61
2023-05-04T02:24:49.290Z,22.6
2023-05-04T02:26:54.333Z,22.57
2023-05-04T02:28:59.400Z,22.56
2023-05-04T02:31:04.470Z,22.54
2023-05-04T02:33:09.574Z,22.5
2023-05-04T02:35:14.999Z,22.51
2023-05-04T02:37:20.082Z,22.49
2023-05-04T02:39:25.160Z,22.49
2023-05-04T02:41:30.190Z,22.48
2023-05-04T02:43:35.273Z,22.47
2023-05-04T02:45:40.392Z,22.46
2023-05-04T02:47:45.609Z,22.46
2023-05-04T02:49:50.828Z,22.44
2023-05-04T02:51:55.907Z,22.43
2023-05-04T02:54:01.090Z,22.42
2023-05-04T02:57:57.986Z,22.39
2023-05-04T03:00:03.233Z,22.37
2023-05-04T03:02:09.394Z,22.34
2023-05-04T03:04:14.493Z,22.35
2023-05-04T03:06:19.792Z,22.35
2023-05-04T03:08:24.938Z,22.35
2023-05-04T03:10:30.035Z,22.32
2023-05-04T03:12:35.082Z,22.31
2023-05-04T03:14:40.284Z,22.32
2023-05-04T03:16:45.400Z,22.31
2023-05-04T03:18:50.714Z,22.3
2023-05-04T03:21:01.023Z,22.27
2023-05-04T03:23:06.120Z,22.27
2023-05-04T03:25:11.216Z,22.31
2023-05-04T03:27:16.252Z,22.32
2023-05-04T03:29:21.394Z,22.31
2023-05-04T03:31:26.520Z,22.3
2023-05-04T03:33:31.788Z,22.3
2023-05-04T03:35:36.799Z,22.29
2023-05-04T03:37:42.038Z,22.29
2023-05-04T03:39:47.092Z,22.29
2023-05-04T03:41:52.156Z,22.28
2023-05-04T03:43:57.182Z,22.26
2023-05-04T03:46:02.306Z,22.27
2023-05-04T03:48:07.654Z,22.26
2023-05-04T03:50:12.898Z,22.27
2023-05-04T03:52:18.007Z,22.25
2023-05-04T03:54:23.078Z,22.26
2023-05-04T03:56:28.272Z,22.26
2023-05-04T03:58:33.310Z,22.23
2023-05-04T04:00:38.396Z,22.22
2023-05-04T04:02:43.581Z,22.22
2023-05-04T04:04:48.842Z,22.22
2023-05-04T04:06:53.850Z,22.2
2023-05-04T04:08:58.866Z,22.21
2023-05-04T04:11:03.920Z,22.2
2023-05-04T04:13:08.989Z,22.21
2023-05-04T04:15:14.304Z,22.19
2023-05-04T04:17:19.495Z,22.18
2023-05-04T04:19:24.754Z,22.15
2023-05-04T04:21:29.884Z,22.14
2023-05-04T04:23:34.937Z,22.13
2023-05-04T04:25:39.977Z,22.12
2023-05-04T04:27:47.936Z,22.09
2023-05-04T04:29:52.985Z,22.1
2023-05-04T04:31:58.106Z,22.07
2023-05-04T04:34:03.341Z,22.07
2023-05-04T04:36:08.356Z,22.06
2023-05-04T04:38:13.378Z,22.07
2023-05-04T04:40:18.451Z,22.05
2023-05-04T04:42:23.521Z,22.06
2023-05-04T04:44:28.622Z,22.06
2023-05-04T04:46:33.731Z,22.07
2023-05-04T04:48:38.930Z,22.08
2023-05-04T04:50:44.072Z,22.07
2023-05-04T04:52:49.126Z,22.07
2023-05-04T04:54:54.137Z,22.07
2023-05-04T04:56:59.317Z,22.08
2023-05-04T04:59:04.347Z,22.09
2023-05-04T05:01:09.389Z,22.09
2023-05-04T05:03:14.798Z,22.08
2023-05-04T05:05:20.132Z,22.11
2023-05-04T05:07:25.220Z,22.13
2023-05-04T05:09:30.277Z,22.14
2023-05-04T05:11:35.371Z,22.17
2023-05-04T05:13:40.416Z,22.18
2023-05-04T05:15:45.528Z,22.29
2023-05-04T05:17:50.674Z,22.46
2023-05-04T05:19:55.895Z,22.61
2023-05-04T05:22:00.926Z,22.75
2023-05-04T05:24:05.966Z,22.88
2023-05-04T05:26:11.042Z,22.98
2023-05-04T05:28:16.065Z,23.06
2023-05-04T05:30:21.133Z,23.14
2023-05-04T05:32:26.320Z,23.22
2023-05-04T05:34:31.485Z,23.27
2023-05-04T05:36:36.710Z,23.34
2023-05-04T05:38:41.893Z,23.36
2023-05-04T05:40:46.926Z,23.42
2023-05-04T05:42:52.025Z,23.46
2023-05-04T05:44:57.045Z,23.52
2023-05-04T05:47:02.072Z,23.56
2023-05-04T05:49:07.092Z,23.61
2023-05-04T05:51:12.215Z,23.64
2023-05-04T05:53:17.257Z,23.68
2023-05-04T05:55:22.350Z,23.72
2023-05-04T05:57:27.424Z,23.77
2023-05-04T05:59:32.468Z,23.8
2023-05-04T06:01:37.517Z,23.84
2023-05-04T06:03:43.037Z,23.86
2023-05-04T06:05:48.754Z,23.91
2023-05-04T06:07:53.881Z,23.94
2023-05-04T06:09:58.979Z,23.95
2023-05-04T06:12:04.186Z,23.98
2023-05-04T06:14:09.300Z,24
2023-05-04T06:16:14.391Z,24.03
2023-05-04T06:18:19.627Z,24.05
2023-05-04T06:20:24.693Z,24.05
2023-05-04T06:22:29.832Z,24.05
2023-05-04T06:24:34.902Z,24.04
2023-05-04T06:26:39.975Z,24.04
2023-05-04T06:28:45.040Z,24.03
2023-05-04T06:30:50.170Z,24.01
2023-05-04T06:32:55.447Z,24.02
2023-05-04T06:35:00.827Z,24.05
2023-05-04T06:37:06.001Z,24.08
2023-05-04T06:39:11.236Z,24.1
2023-05-04T06:41:16.320Z,24.14
2023-05-04T06:43:21.684Z,24.16
2023-05-04T06:45:26.738Z,24.17
2023-05-04T06:47:32.063Z,24.17
2023-05-04T06:49:37.557Z,24.19
2023-05-04T06:51:42.787Z,24.2
2023-05-04T06:53:47.760Z,24.21
2023-05-04T06:55:52.743Z,24.24
2023-05-04T06:57:57.754Z,24.29
2023-05-04T07:00:02.959Z,24.34
2023-05-04T07:02:08.742Z,24.38
2023-05-04T07:04:13.820Z,24.43
2023-05-04T07:06:18.906Z,24.46
2023-05-04T07:08:24.017Z,24.49
2023-05-04T07:10:29.085Z,24.51
2023-05-04T07:12:34.153Z,24.51
2023-05-04T07:14:39.311Z,24.5
2023-05-04T07:16:44.457Z,24.49
2023-05-04T07:18:49.879Z,24.5
2023-05-04T07:20:58.807Z,24.48
2023-05-04T07:23:32.003Z,24.48
2023-05-04T07:25:37.051Z,24.45
2023-05-04T07:27:42.183Z,24.41
2023-05-04T07:29:47.242Z,24.44
2023-05-04T07:31:52.300Z,24.45
2023-05-04T07:33:57.419Z,24.47
2023-05-04T07:36:02.456Z,24.47
2023-05-04T07:38:07.518Z,24.46
2023-05-04T07:40:12.654Z,24.48
2023-05-04T07:42:17.916Z,24.47
2023-05-04T07:44:23.062Z,24.47
2023-05-04T07:46:28.258Z,24.5
2023-05-04T07:48:33.477Z,24.49
2023-05-04T07:50:38.528Z,24.49
2023-05-04T07:52:43.568Z,24.48
2023-05-04T07:54:48.731Z,24.46
2023-05-04T07:56:53.745Z,24.47
2023-05-04T07:58:58.964Z,24.46
2023-05-04T08:01:04.563Z,24.46
2023-05-04T08:03:09.752Z,24.47
2023-05-04T08:05:15.389Z,24.5
2023-05-04T08:07:20.683Z,24.52
2023-05-04T08:09:25.774Z,24.51
2023-05-04T08:11:31.099Z,24.51
2023-05-04T08:13:36.137Z,24.54
2023-05-04T08:15:41.263Z,24.54
2023-05-04T08:17:46.583Z,24.57
2023-05-04T08:19:51.966Z,24.59
2023-05-04T08:21:57.144Z,24.58
2023-05-04T08:24:02.356Z,24.58
2023-05-04T08:26:07.549Z,24.59
2023-05-04T08:28:12.632Z,24.6
2023-05-04T08:30:17.696Z,24.61
2023-05-04T08:32:22.810Z,24.61
2023-05-04T08:34:28.005Z,24.64
2023-05-04T08:36:33.160Z,24.63
2023-05-04T08:38:38.403Z,24.65
2023-05-04T08:40:43.564Z,24.66
2023-05-04T08:42:48.749Z,24.66
2023-05-04T08:44:54.000Z,24.65
2023-05-04T08:46:59.152Z,24.67
2023-05-04T08:49:04.263Z,24.67
2023-05-04T08:51:09.446Z,24.68
2023-05-04T08:53:14.509Z,24.69
2023-05-04T08:55:19.752Z,24.71
2023-05-04T08:57:25.017Z,24.73
2023-05-04T08:59:30.402Z,24.75
2023-05-04T09:01:35.576Z,24.75
2023-05-04T09:03:41.186Z,24.78
2023-05-04T09:05:46.677Z,24.81
2023-05-04T09:07:51.829Z,24.82
2023-05-04T09:09:56.883Z,24.84
2023-05-04T09:12:01.980Z,24.86
2023-05-04T09:14:07.094Z,24.86
2023-05-04T09:16:14.633Z,24.88
2023-05-04T09:18:20.156Z,24.89
2023-05-04T09:20:25.536Z,24.9
2023-05-04T09:22:30.664Z,24.9
2023-05-04T09:24:35.768Z,24.91
2023-05-04T09:26:40.908Z,24.93
2023-05-04T09:28:47.422Z,24.92
2023-05-04T09:30:52.630Z,24.95
2023-05-04T09:32:57.811Z,24.96
2023-05-04T09:35:03.222Z,24.98
2023-05-04T09:37:09.206Z,24.99
2023-05-04T09:39:14.247Z,25
2023-05-04T09:41:19.425Z,25.02
2023-05-04T09:43:24.559Z,25.02
2023-05-04T09:45:29.686Z,25.04
2023-05-04T09:47:34.777Z,25.07
2023-05-04T09:49:40.098Z,25.08
2023-05-04T09:51:45.229Z,25.1
2023-05-04T09:53:50.288Z,25.1
2023-05-04T09:55:55.521Z,25.1
2023-05-04T09:58:02.665Z,25.12
2023-05-04T10:00:07.857Z,25.12
2023-05-04T10:02:21.587Z,25.13
2023-05-04T10:04:27.711Z,25.14
2023-05-04T10:06:32.762Z,25.16
2023-05-04T10:08:38.175Z,25.18
2023-05-04T10:10:43.347Z,25.18
2023-05-04T10:12:48.447Z,25.18
2023-05-04T10:14:53.789Z,25.21
2023-05-04T10:16:58.887Z,25.22
2023-05-04T10:19:03.989Z,25.24
2023-05-04T10:21:09.117Z,25.23
2023-05-04T10:23:14.309Z,25.24
2023-05-04T10:25:19.405Z,25.25
2023-05-04T10:27:24.516Z,25.06
2023-05-04T10:29:29.712Z,24.82
2023-05-04T10:31:35.105Z,24.61
2023-05-04T10:33:40.528Z,24.42
2023-05-04T10:35:45.747Z,24.34
2023-05-04T10:37:50.893Z,24.3
2023-05-04T10:39:56.007Z,24.28
2023-05-04T10:42:01.157Z,24.31
2023-05-04T10:44:06.424Z,24.33
2023-05-04T10:46:11.599Z,24.31
2023-05-04T10:48:16.951Z,24.3
2023-05-04T10:50:22.128Z,24.26
2023-05-04T10:52:27.262Z,24.22
2023-05-04T10:54:32.453Z,24.22
2023-05-04T10:56:37.514Z,24.26
2023-05-04T10:58:42.665Z,24.31
2023-05-04T11:00:48.239Z,24.32
2023-05-04T11:02:53.612Z,24.35
2023-05-04T11:04:58.897Z,24.32
2023-05-04T11:07:04.031Z,24.29
2023-05-04T11:09:09.316Z,24.25
2023-05-04T11:11:14.436Z,24.24
2023-05-04T11:13:19.695Z,24.33
2023-05-04T11:15:25.115Z,24.39
2023-05-04T11:17:30.393Z,24.43
2023-05-04T11:19:35.685Z,24.47
2023-05-04T11:21:40.874Z,24.48
2023-05-04T11:23:46.023Z,24.49
2023-05-04T11:25:51.136Z,24.51
2023-05-04T11:27:56.320Z,24.5
2023-05-04T11:30:01.720Z,24.57
2023-05-04T11:32:06.954Z,24.64
2023-05-04T11:34:12.251Z,24.69
2023-05-04T11:36:17.337Z,24.7
2023-05-04T11:38:22.627Z,24.69
2023-05-04T11:40:28.066Z,24.66
2023-05-04T11:42:33.307Z,24.63
2023-05-04T11:44:38.443Z,24.64
2023-05-04T11:46:43.532Z,24.69
2023-05-04T11:48:48.868Z,24.75
2023-05-04T11:50:53.932Z,24.82
2023-05-04T11:52:59.079Z,24.83
2023-05-04T11:55:04.405Z,24.8
2023-05-04T11:57:11.729Z,24.73
2023-05-04T11:59:16.872Z,24.71
2023-05-04T12:01:21.948Z,24.73
2023-05-04T12:03:32.520Z,24.76
2023-05-04T12:05:58.307Z,24.81
2023-05-04T12:08:03.805Z,24.88
2023-05-04T12:10:09.062Z,24.93
2023-05-04T12:12:14.359Z,25
2023-05-04T12:14:19.478Z,25.02
2023-05-04T12:16:24.655Z,25.06
2023-05-04T12:18:30.076Z,25.05
2023-05-04T12:20:35.303Z,25.05
2023-05-04T12:22:40.556Z,25.04
2023-05-04T12:24:45.790Z,25.03
2023-05-04T12:26:50.885Z,25
2023-05-04T12:28:56.110Z,24.96
2023-05-04T12:31:01.400Z,24.93
2023-05-04T12:33:06.547Z,24.91
2023-05-04T12:35:35.309Z,24.9
2023-05-04T12:37:40.480Z,24.89
2023-05-04T12:39:45.599Z,24.94
2023-05-04T12:41:50.705Z,24.95
2023-05-04T12:43:55.759Z,24.99
2023-05-04T12:46:00.916Z,24.98
2023-05-04T12:48:06.140Z,25.01
2023-05-04T12:50:11.537Z,24.94
2023-05-04T12:52:16.872Z,24.93
2023-05-04T12:54:22.043Z,25.03
2023-05-04T12:56:27.256Z,24.98
2023-05-04T12:58:32.644Z,25.04
2023-05-04T13:00:37.788Z,25.1
2023-05-04T13:02:42.998Z,25.08
2023-05-04T13:04:48.576Z,25.17
2023-05-04T13:06:53.740Z,25.2
2023-05-04T13:08:58.894Z,25.19
2023-05-04T13:11:03.980Z,25.16
2023-05-04T13:13:09.179Z,25.09
2023-05-04T13:15:14.592Z,25.1
2023-05-04T13:17:19.683Z,25.11
2023-05-04T13:19:24.754Z,25.09
2023-05-04T13:21:29.944Z,25.08
2023-05-04T13:23:35.256Z,25.11
2023-05-04T13:25:40.324Z,25.03
2023-05-04T13:27:45.594Z,25.02
2023-05-04T13:29:50.678Z,25.02
2023-05-04T13:31:55.811Z,25.07
2023-05-04T13:34:01.149Z,25.07
2023-05-04T13:36:06.231Z,25.07
2023-05-04T13:38:11.386Z,25.05
2023-05-04T13:40:16.438Z,25.02
2023-05-04T13:42:21.675Z,25.03
2023-05-04T13:44:26.888Z,25
2023-05-04T13:46:31.973Z,24.99
2023-05-04T13:48:37.351Z,24.98
2023-05-04T13:50:42.761Z,25
2023-05-04T13:52:47.852Z,25
2023-05-04T13:54:53.015Z,24.98
2023-05-04T13:56:58.067Z,24.95
2023-05-04T13:59:03.144Z,24.91
2023-05-04T14:01:08.297Z,24.92
2023-05-04T14:03:13.674Z,24.94
2023-05-04T14:05:18.915Z,24.91
2023-05-04T14:07:23.962Z,24.89
2023-05-04T14:09:29.010Z,24.85
2023-05-04T14:11:34.056Z,24.8
2023-05-04T14:13:39.324Z,24.79
2023-05-04T14:15:44.526Z,24.81
2023-05-04T14:17:49.682Z,24.81
2023-05-04T14:19:54.853Z,24.79
2023-05-04T14:21:59.975Z,24.75
2023-05-04T14:24:05.063Z,24.72
2023-05-04T14:26:10.141Z,24.7
2023-05-04T14:28:15.539Z,24.69
2023-05-04T14:30:20.658Z,24.71
2023-05-04T14:32:25.776Z,24.68
2023-05-04T14:34:30.965Z,24.72
2023-05-04T14:36:36.225Z,24.73
2023-05-04T14:38:41.504Z,24.75
2023-05-04T14:40:48.424Z,24.77
2023-05-04T14:42:54.545Z,24.69
2023-05-04T14:44:59.707Z,24.67
2023-05-04T14:47:06.849Z,24.61
2023-05-04T14:49:18.610Z,24.51
2023-05-04T14:51:41.080Z,24.39
2023-05-04T14:53:46.326Z,24.27
2023-05-04T14:55:51.388Z,24.22
2023-05-04T14:57:56.573Z,24.2
2023-05-04T15:00:01.599Z,24.17
2023-05-04T15:02:06.627Z,24.16
2023-05-04T15:04:11.702Z,24.11
2023-05-04T15:06:16.930Z,24.09
2023-05-04T15:08:21.995Z,24.04
2023-05-04T15:10:27.124Z,24.05
2023-05-04T15:12:32.332Z,24.03
2023-05-04T15:14:37.599Z,24.03
2023-05-04T15:16:42.857Z,24.01
2023-05-04T15:18:48.043Z,24
2023-05-04T15:20:53.298Z,23.97
2023-05-04T15:22:58.467Z,23.98
2023-05-04T15:25:03.632Z,23.97
2023-05-04T15:27:08.770Z,23.91
2023-05-04T15:29:13.802Z,23.95
2023-05-04T15:31:18.894Z,23.94
2023-05-04T15:33:24.087Z,23.88
2023-05-04T15:35:29.312Z,23.82
2023-05-04T15:37:34.481Z,23.79
2023-05-04T15:39:39.686Z,23.74
2023-05-04T15:41:44.761Z,23.66
2023-05-04T15:43:50.003Z,23.67
2023-05-04T15:45:55.106Z,23.67
2023-05-04T15:48:00.386Z,23.71
2023-05-04T15:50:05.948Z,23.72
2023-05-04T15:52:12.199Z,23.72
2023-05-04T15:54:17.342Z,23.77
2023-05-04T15:56:22.410Z,23.79
2023-05-04T15:58:27.539Z,23.73
2023-05-04T16:00:32.625Z,23.75
2023-05-04T16:02:37.833Z,23.78
2023-05-04T16:04:43.301Z,23.76
2023-05-04T16:06:48.429Z,23.73
2023-05-04T16:08:53.573Z,23.74
2023-05-04T16:10:58.690Z,23.71
2023-05-04T16:13:04.394Z,23.75
2023-05-04T16:15:12.440Z,23.79
2023-05-04T16:17:17.674Z,23.79
2023-05-04T16:19:22.863Z,23.81
2023-05-04T16:21:27.995Z,23.83
2023-05-04T16:23:33.159Z,23.82
2023-05-04T16:25:38.268Z,23.86
2023-05-04T16:27:43.413Z,23.83
2023-05-04T16:29:48.544Z,23.85
2023-05-04T16:31:53.612Z,23.82
2023-05-04T16:33:59.088Z,23.72
2023-05-04T16:36:04.201Z,23.78
2023-05-04T16:38:09.257Z,23.84
2023-05-04T16:40:14.388Z,23.89
2023-05-04T16:42:21.483Z,23.97
2023-05-04T16:44:26.668Z,24.07
2023-05-04T16:46:31.728Z,24.15
2023-05-04T16:48:37.060Z,24.22
2023-05-04T16:50:42.142Z,24.29
2023-05-04T16:52:47.294Z,24.33
2023-05-04T16:54:52.379Z,24.39
2023-05-04T16:56:57.421Z,24.46
2023-05-04T16:59:03.124Z,24.52
2023-05-04T17:01:10.426Z,24.58
2023-05-04T17:03:16.554Z,24.64
2023-05-04T17:05:21.882Z,24.72
2023-05-04T17:07:26.949Z,24.79
2023-05-04T17:09:32.007Z,24.84
2023-05-04T17:11:37.040Z,24.88
2023-05-04T17:13:42.260Z,24.92
2023-05-04T17:15:47.332Z,24.95
2023-05-04T17:17:52.629Z,25
2023-05-04T17:19:58.093Z,25.02
2023-05-04T17:22:03.228Z,25.06
2023-05-04T17:24:08.401Z,25.07
2023-05-04T17:26:13.471Z,25.1
2023-05-04T17:28:18.532Z,25.14
2023-05-04T17:30:23.581Z,25.15
2023-05-04T17:32:28.631Z,25.18
2023-05-04T17:34:33.846Z,25.21
2023-05-04T17:36:38.949Z,25.23
2023-05-04T17:38:44.040Z,25.29
2023-05-04T17:40:49.258Z,25.29
2023-05-04T17:42:54.388Z,25.32
2023-05-04T17:44:59.757Z,25.35
2023-05-04T17:47:04.832Z,25.37
2023-05-04T17:49:09.947Z,25.38
2023-05-04T17:51:15.012Z,25.4
2023-05-04T17:53:20.029Z,25.42
2023-05-04T17:55:25.150Z,25.43
2023-05-04T17:57:30.250Z,25.44
2023-05-04T17:59:35.402Z,25.37
2023-05-04T18:01:40.542Z,25.3
2023-05-04T18:03:45.793Z,25.23
2023-05-04T18:05:51.136Z,25.15
2023-05-04T18:07:56.188Z,25.11
2023-05-04T18:10:01.401Z,25.05
2023-05-04T18:12:06.516Z,25.03
2023-05-04T18:14:11.576Z,25.02
2023-05-04T18:16:16.690Z,25.03
2023-05-04T18:18:22.128Z,25.02
2023-05-04T18:20:27.255Z,25.05
2023-05-04T18:22:32.438Z,25.06
2023-05-04T18:24:37.559Z,25.06
2023-05-04T18:26:42.604Z,25.1
2023-05-04T18:28:47.662Z,25.09
2023-05-04T18:30:52.880Z,25.07
2023-05-04T18:32:58.033Z,25.07
2023-05-04T18:35:03.305Z,25.04
2023-05-04T18:37:08.654Z,25.01
2023-05-04T18:39:13.724Z,25
2023-05-04T18:41:18.902Z,24.95
2023-05-04T18:43:24.194Z,24.94
2023-05-04T18:45:29.259Z,24.94
2023-05-04T18:47:34.426Z,24.96
2023-05-04T18:49:39.662Z,24.97
2023-05-04T18:51:44.717Z,24.97
2023-05-04T18:53:49.742Z,24.94
2023-05-04T18:55:54.877Z,24.95
2023-05-04T18:57:59.895Z,24.94
2023-05-04T19:00:05.059Z,24.92
2023-05-04T19:02:11.402Z,24.93
2023-05-04T19:04:16.593Z,24.96
2023-05-04T19:06:21.740Z,24.98
2023-05-04T19:08:26.862Z,25.02
2023-05-04T19:10:31.960Z,25.02
2023-05-04T19:12:37.021Z,25.06
2023-05-04T19:14:42.297Z,25.07
2023-05-04T19:16:47.421Z,25.06
2023-05-04T19:18:52.498Z,25.07
2023-05-04T19:20:57.597Z,25.06
2023-05-04T19:23:02.618Z,25.07
2023-05-04T19:25:07.701Z,25.1
2023-05-04T19:27:14.975Z,25.12
2023-05-04T19:29:20.108Z,25.12
2023-05-04T19:31:25.254Z,25.13
2023-05-04T19:33:40.747Z,25.1
2023-05-04T19:35:52.973Z,25.07
2023-05-04T19:37:58.103Z,25.08
2023-05-04T19:40:03.273Z,25.05
2023-05-04T19:42:08.795Z,25.05
2023-05-04T19:44:13.832Z,25.02
2023-05-04T19:46:18.912Z,25.02
2023-05-04T19:48:24.096Z,25.05
2023-05-04T19:50:29.196Z,25.08
2023-05-04T19:52:34.261Z,25.08
2023-05-04T19:54:39.342Z,25.12
2023-05-04T19:56:44.425Z,25.14
2023-05-04T19:58:49.617Z,25.14
2023-05-04T20:00:54.693Z,25.16
2023-05-04T20:02:59.979Z,25.2
2023-05-04T20:05:05.248Z,25.23
2023-05-04T20:07:10.376Z,25.25
2023-05-04T20:09:15.485Z,25.29
2023-05-04T20:11:20.672Z,25.32
2023-05-04T20:13:25.735Z,25.35
2023-05-04T20:15:30.830Z,25.35
2023-05-04T20:17:35.967Z,25.34
2023-05-04T20:19:41.153Z,25.34
2023-05-04T20:21:46.255Z,25.35
2023-05-04T20:23:51.391Z,25.32
2023-05-04T20:25:56.453Z,25.32
2023-05-04T20:28:01.576Z,25.31
2023-05-04T20:30:06.974Z,25.28
2023-05-04T20:32:13.004Z,25.25
2023-05-04T20:34:19.089Z,25.24
2023-05-04T20:36:24.526Z,25.22
2023-05-04T20:38:29.752Z,25.21
2023-05-04T20:40:34.919Z,25.21
2023-05-04T20:42:40.145Z,25.2
2023-05-04T20:44:45.489Z,25.19
2023-05-04T20:46:50.541Z,25.18
2023-05-04T20:48:55.649Z,25.18
2023-05-04T20:51:13.115Z,25.17
2023-05-04T20:53:19.694Z,25.15
2023-05-04T20:55:24.835Z,25.13
2023-05-04T20:57:29.945Z,25.09
2023-05-04T20:59:35.372Z,25.06
2023-05-04T21:01:40.469Z,25.04
2023-05-04T21:03:45.854Z,25.03
2023-05-04T21:05:51.581Z,25
2023-05-04T21:07:56.615Z,25.01
2023-05-04T21:10:01.814Z,24.96
2023-05-04T21:12:06.831Z,24.95
2023-05-04T21:14:12.139Z,24.93
2023-05-04T21:16:17.261Z,24.93
2023-05-04T21:18:22.464Z,24.91
2023-05-04T21:20:27.516Z,24.92
2023-05-04T21:22:32.572Z,24.92
2023-05-04T21:24:37.654Z,24.95
2023-05-04T21:26:42.742Z,24.97
2023-05-04T21:28:47.769Z,24.96
2023-05-04T21:30:52.876Z,24.95
2023-05-04T21:32:58.150Z,24.95
2023-05-04T21:35:03.543Z,24.94
2023-05-04T21:37:09.084Z,24.95
2023-05-04T21:39:14.339Z,24.95
2023-05-04T21:41:19.560Z,24.93
2023-05-04T21:43:24.634Z,24.9
2023-05-04T21:45:29.762Z,24.88
2023-05-04T21:47:34.991Z,24.85
2023-05-04T21:49:40.382Z,24.84
2023-05-04T21:51:45.472Z,24.81
2023-05-04T21:53:50.489Z,24.8
2023-05-04T21:55:55.548Z,24.78
2023-05-04T21:58:00.616Z,24.77
2023-05-04T22:00:05.737Z,24.76
2023-05-04T22:02:11.691Z,24.73
2023-05-04T22:04:16.799Z,24.71
2023-05-04T22:06:22.179Z,24.71
2023-05-04T22:08:27.371Z,24.7
2023-05-04T22:10:32.527Z,24.7
2023-05-04T22:12:37.771Z,24.67
2023-05-04T22:14:43.049Z,24.67
2023-05-04T22:16:48.330Z,24.68
2023-05-04T22:18:53.664Z,24.66
2023-05-04T22:20:59.062Z,24.66
2023-05-04T22:23:04.293Z,24.66
2023-05-04T22:25:09.445Z,24.64
2023-05-04T22:27:14.524Z,24.64
2023-05-04T22:29:19.691Z,24.61
2023-05-04T22:31:24.759Z,24.58
2023-05-04T22:33:30.029Z,24.59
2023-05-04T22:35:35.152Z,24.6
2023-05-04T22:37:40.395Z,24.58
2023-05-04T22:39:45.420Z,24.58
2023-05-04T22:41:50.501Z,24.58
2023-05-04T22:43:55.658Z,24.56
2023-05-04T22:46:00.843Z,24.54
2023-05-04T22:48:06.231Z,24.54
2023-05-04T22:50:11.405Z,24.54
2023-05-04T22:52:16.475Z,24.51
2023-05-04T22:54:21.753Z,24.51
2023-05-04T22:56:27.001Z,24.49
2023-05-04T22:58:32.009Z,24.47
2023-05-04T23:00:37.102Z,24.43
2023-05-04T23:02:42.236Z,24.41
2023-05-04T23:04:47.444Z,24.38
2023-05-04T23:06:52.551Z,24.37
2023-05-04T23:08:57.699Z,24.37
2023-05-04T23:11:02.821Z,24.34
2023-05-04T23:13:07.923Z,24.35
2023-05-04T23:15:13.217Z,24.33
2023-05-04T23:17:18.265Z,24.35
2023-05-04T23:19:23.386Z,24.36
2023-05-04T23:21:28.473Z,24.36
2023-05-04T23:23:33.515Z,24.35
2023-05-04T23:25:38.655Z,24.33
2023-05-04T23:27:43.782Z,24.34
2023-05-04T23:29:48.809Z,24.34
2023-05-04T23:31:53.877Z,24.32
2023-05-04T23:33:59.120Z,24.34
2023-05-04T23:36:04.131Z,24.35
2023-05-04T23:38:09.261Z,24.34
2023-05-04T23:40:14.380Z,24.32
2023-05-04T23:42:19.504Z,24.32
2023-05-04T23:44:24.675Z,24.33
2023-05-04T23:46:29.764Z,24.33
2023-05-04T23:48:34.824Z,24.33
2023-05-04T23:50:39.891Z,24.34
2023-05-04T23:52:44.933Z,24.35
2023-05-04T23:54:50.051Z,24.35
2023-05-04T23:56:55.382Z,24.35
2023-05-04T23:59:00.509Z,24.33
